sensor_id;sensor_type;location;lat;lon;timestamp;temperature;humidity
1075;DHT22;526;51.392;12.448;2023-08-24T04:02:44;16.80;97.30
1075;DHT22;526;51.392;12.448;2023-08-24T04:05:09;16.80;97.30
1075;DHT22;526;51.392;12.448;2023-08-24T04:07:35;16.80;97.30
1075;DHT22;526;51.392;12.448;2023-08-24T04:10:05;16.80;97.30
1075;DHT22;526;51.392;12.448;2023-08-24T04:15:00;16.80;97.30
1075;DHT22;526;51.392;12.448;2023-08-24T04:17:25;16.80;97.30
1075;DHT22;526;51.392;12.448;2023-08-24T04:19:51;16.80;97.30
1075;DHT22;526;51.392;12.448;2023-08-24T04:22:18;16.80;97.30
1075;DHT22;526;51.392;12.448;2023-08-24T04:24:43;16.80;97.30
1075;DHT22;526;51.392;12.448;2023-08-24T04:27:09;16.80;97.30
1075;DHT22;526;51.392;12.448;2023-08-24T04:29:34;16.70;97.30
1075;DHT22;526;51.392;12.448;2023-08-24T04:32:00;16.70;97.30
1075;DHT22;526;51.392;12.448;2023-08-24T04:34:28;16.70;97.30
1075;DHT22;526;51.392;12.448;2023-08-24T04:36:54;16.70;97.30
1075;DHT22;526;51.392;12.448;2023-08-24T04:39:20;16.80;97.30
1075;DHT22;526;51.392;12.448;2023-08-24T04:41:45;16.70;97.30
1075;DHT22;526;51.392;12.448;2023-08-24T04:44:11;16.80;97.30
1075;DHT22;526;51.392;12.448;2023-08-24T04:46:36;16.80;97.30
1075;DHT22;526;51.392;12.448;2023-08-24T04:49:02;16.80;97.30
1075;DHT22;526;51.392;12.448;2023-08-24T04:51:28;16.80;97.30
1075;DHT22;526;51.392;12.448;2023-08-24T04:53:54;16.80;97.30
1075;DHT22;526;51.392;12.448;2023-08-24T04:56:20;16.80;97.30
1075;DHT22;526;51.392;12.448;2023-08-24T04:58:52;16.90;97.30
1075;DHT22;526;51.392;12.448;2023-08-24T05:01:22;16.90;97.30
1075;DHT22;526;51.392;12.448;2023-08-24T05:03:48;16.90;97.30
1075;DHT22;526;51.392;12.448;2023-08-24T05:06:13;17.00;97.30
1075;DHT22;526;51.392;12.448;2023-08-24T05:08:39;17.00;97.30
1075;DHT22;526;51.392;12.448;2023-08-24T05:11:17;17.00;97.30
1075;DHT22;526;51.392;12.448;2023-08-24T05:13:44;17.00;97.30
1075;DHT22;526;51.392;12.448;2023-08-24T05:16:10;17.00;97.30
1075;DHT22;526;51.392;12.448;2023-08-24T05:18:36;17.00;97.30
1075;DHT22;526;51.392;12.448;2023-08-24T05:21:02;17.00;97.30
1075;DHT22;526;51.392;12.448;2023-08-24T05:23:31;17.00;97.30
1075;DHT22;526;51.392;12.448;2023-08-24T05:25:58;17.00;97.30
1075;DHT22;526;51.392;12.448;2023-08-24T05:28:27;17.10;97.30
1075;DHT22;526;51.392;12.448;2023-08-24T05:30:53;17.10;97.30
1075;DHT22;526;51.392;12.448;2023-08-24T05:33:20;17.10;97.30
1075;DHT22;526;51.392;12.448;2023-08-24T05:35:46;17.20;97.30
1075;DHT22;526;51.392;12.448;2023-08-24T05:38:15;17.20;97.30
1075;DHT22;526;51.392;12.448;2023-08-24T05:40:43;17.20;97.30
1075;DHT22;526;51.392;12.448;2023-08-24T05:43:09;17.30;97.30
1075;DHT22;526;51.392;12.448;2023-08-24T05:45:35;17.30;97.30
1075;DHT22;526;51.392;12.448;2023-08-24T05:48:01;17.40;97.30
1075;DHT22;526;51.392;12.448;2023-08-24T05:50:26;17.40;97.30
1075;DHT22;526;51.392;12.448;2023-08-24T05:52:52;17.40;97.30
1075;DHT22;526;51.392;12.448;2023-08-24T05:55:18;17.50;97.30
1075;DHT22;526;51.392;12.448;2023-08-24T05:57:43;17.60;97.30
1075;DHT22;526;51.392;12.448;2023-08-24T06:00:09;17.60;97.30
1075;DHT22;526;51.392;12.448;2023-08-24T06:02:39;17.60;97.30
1075;DHT22;526;51.392;12.448;2023-08-24T06:05:06;17.70;97.30
1075;DHT22;526;51.392;12.448;2023-08-24T06:07:32;17.70;97.30
1075;DHT22;526;51.392;12.448;2023-08-24T06:09:57;17.80;97.30
1075;DHT22;526;51.392;12.448;2023-08-24T06:12:23;17.80;97.30
1075;DHT22;526;51.392;12.448;2023-08-24T06:14:49;17.90;97.30
1075;DHT22;526;51.392;12.448;2023-08-24T06:17:14;18.00;97.30
1075;DHT22;526;51.392;12.448;2023-08-24T06:19:40;18.00;97.30
1075;DHT22;526;51.392;12.448;2023-08-24T06:22:05;18.10;97.30
1075;DHT22;526;51.392;12.448;2023-08-24T06:24:31;18.10;97.30
1075;DHT22;526;51.392;12.448;2023-08-24T06:26:57;18.20;97.30
1075;DHT22;526;51.392;12.448;2023-08-24T06:29:22;18.30;97.30
1075;DHT22;526;51.392;12.448;2023-08-24T06:31:48;18.40;97.30
1075;DHT22;526;51.392;12.448;2023-08-24T06:34:13;18.40;97.30
1075;DHT22;526;51.392;12.448;2023-08-24T06:36:39;18.50;97.30
1075;DHT22;526;51.392;12.448;2023-08-24T06:39:05;18.60;97.30
1075;DHT22;526;51.392;12.448;2023-08-24T06:41:37;18.70;97.30
1075;DHT22;526;51.392;12.448;2023-08-24T06:44:02;18.70;97.30
1075;DHT22;526;51.392;12.448;2023-08-24T06:46:29;18.80;97.30
1075;DHT22;526;51.392;12.448;2023-08-24T06:48:54;18.90;97.30
1075;DHT22;526;51.392;12.448;2023-08-24T06:51:20;18.90;97.30
1075;DHT22;526;51.392;12.448;2023-08-24T06:53:45;19.00;97.30
1075;DHT22;526;51.392;12.448;2023-08-24T06:56:13;19.10;97.30
1075;DHT22;526;51.392;12.448;2023-08-24T06:58:40;19.20;97.30
1075;DHT22;526;51.392;12.448;2023-08-24T07:01:05;19.30;97.30
1075;DHT22;526;51.392;12.448;2023-08-24T07:03:32;19.40;97.30
1075;DHT22;526;51.392;12.448;2023-08-24T07:06:00;19.40;97.30
1075;DHT22;526;51.392;12.448;2023-08-24T07:08:26;19.60;97.30
1075;DHT22;526;51.392;12.448;2023-08-24T07:10:51;19.60;97.30
1075;DHT22;526;51.392;12.448;2023-08-24T07:13:17;19.80;97.30
1075;DHT22;526;51.392;12.448;2023-08-24T07:15:43;19.80;97.30
1075;DHT22;526;51.392;12.448;2023-08-24T07:18:08;19.90;97.30
1075;DHT22;526;51.392;12.448;2023-08-24T07:20:34;20.10;97.30
1075;DHT22;526;51.392;12.448;2023-08-24T07:23:00;20.20;97.30
1075;DHT22;526;51.392;12.448;2023-08-24T07:25:25;20.30;97.30
1075;DHT22;526;51.392;12.448;2023-08-24T07:27:53;20.40;97.30
1075;DHT22;526;51.392;12.448;2023-08-24T07:30:23;20.50;97.30
1075;DHT22;526;51.392;12.448;2023-08-24T07:32:49;20.60;97.30
1075;DHT22;526;51.392;12.448;2023-08-24T07:35:14;20.70;97.30
1075;DHT22;526;51.392;12.448;2023-08-24T07:37:41;20.80;97.30
1075;DHT22;526;51.392;12.448;2023-08-24T07:40:07;20.90;97.30
1075;DHT22;526;51.392;12.448;2023-08-24T07:42:43;21.00;97.30
1075;DHT22;526;51.392;12.448;2023-08-24T07:45:09;21.10;97.30
1075;DHT22;526;51.392;12.448;2023-08-24T07:47:35;21.30;97.30
1075;DHT22;526;51.392;12.448;2023-08-24T07:50:00;21.40;97.30
1075;DHT22;526;51.392;12.448;2023-08-24T07:52:26;21.50;97.30
1075;DHT22;526;51.392;12.448;2023-08-24T07:54:54;21.60;97.30
1075;DHT22;526;51.392;12.448;2023-08-24T07:57:20;21.70;97.30
1075;DHT22;526;51.392;12.448;2023-08-24T07:59:46;21.80;97.30
1075;DHT22;526;51.392;12.448;2023-08-24T08:02:12;22.00;97.30
1075;DHT22;526;51.392;12.448;2023-08-24T08:04:37;22.00;97.30
1075;DHT22;526;51.392;12.448;2023-08-24T08:07:03;22.20;97.30
1075;DHT22;526;51.392;12.448;2023-08-24T08:09:28;22.30;97.30
1075;DHT22;526;51.392;12.448;2023-08-24T08:11:54;22.40;97.30
1075;DHT22;526;51.392;12.448;2023-08-24T08:14:19;22.60;97.30
1075;DHT22;526;51.392;12.448;2023-08-24T08:16:45;22.70;97.30
1075;DHT22;526;51.392;12.448;2023-08-24T08:19:11;22.80;97.30
1075;DHT22;526;51.392;12.448;2023-08-24T08:21:36;23.00;97.30
1075;DHT22;526;51.392;12.448;2023-08-24T08:24:02;23.10;96.50
1075;DHT22;526;51.392;12.448;2023-08-24T08:26:28;23.30;97.30
1075;DHT22;526;51.392;12.448;2023-08-24T08:28:54;23.40;96.90
1075;DHT22;526;51.392;12.448;2023-08-24T08:31:20;23.50;96.00
1075;DHT22;526;51.392;12.448;2023-08-24T08:33:46;23.70;95.20
1075;DHT22;526;51.392;12.448;2023-08-24T08:36:11;23.90;94.70
1075;DHT22;526;51.392;12.448;2023-08-24T08:38:37;23.90;94.80
1075;DHT22;526;51.392;12.448;2023-08-24T08:41:04;24.00;95.40
1075;DHT22;526;51.392;12.448;2023-08-24T08:43:30;24.10;95.50
1075;DHT22;526;51.392;12.448;2023-08-24T08:45:56;24.20;94.30
1075;DHT22;526;51.392;12.448;2023-08-24T08:48:22;24.20;94.80
1075;DHT22;526;51.392;12.448;2023-08-24T08:50:49;24.30;94.00
1075;DHT22;526;51.392;12.448;2023-08-24T08:53:15;24.30;94.40
1075;DHT22;526;51.392;12.448;2023-08-24T08:55:41;24.30;93.40
1075;DHT22;526;51.392;12.448;2023-08-24T08:58:07;24.40;93.50
1075;DHT22;526;51.392;12.448;2023-08-24T09:00:34;24.40;92.50
1075;DHT22;526;51.392;12.448;2023-08-24T09:03:00;24.40;92.00
1075;DHT22;526;51.392;12.448;2023-08-24T09:05:26;24.50;92.30
1075;DHT22;526;51.392;12.448;2023-08-24T09:07:54;24.50;92.70
1075;DHT22;526;51.392;12.448;2023-08-24T09:10:22;24.50;92.50
1075;DHT22;526;51.392;12.448;2023-08-24T09:12:47;24.50;92.30
1075;DHT22;526;51.392;12.448;2023-08-24T09:15:13;24.50;92.00
1075;DHT22;526;51.392;12.448;2023-08-24T09:17:42;24.50;91.70
1075;DHT22;526;51.392;12.448;2023-08-24T09:20:08;24.50;92.30
1075;DHT22;526;51.392;12.448;2023-08-24T09:22:36;24.60;92.80
1075;DHT22;526;51.392;12.448;2023-08-24T09:25:02;24.60;93.30
1075;DHT22;526;51.392;12.448;2023-08-24T09:27:29;24.60;92.30
1075;DHT22;526;51.392;12.448;2023-08-24T09:29:55;24.60;92.40
1075;DHT22;526;51.392;12.448;2023-08-24T09:32:30;24.70;91.90
1075;DHT22;526;51.392;12.448;2023-08-24T09:35:03;24.70;92.40
1075;DHT22;526;51.392;12.448;2023-08-24T09:37:36;24.70;91.90
1075;DHT22;526;51.392;12.448;2023-08-24T09:40:04;24.80;91.80
1075;DHT22;526;51.392;12.448;2023-08-24T09:42:40;24.80;92.40
1075;DHT22;526;51.392;12.448;2023-08-24T09:45:16;24.90;92.90
1075;DHT22;526;51.392;12.448;2023-08-24T09:48:00;24.90;92.80
1075;DHT22;526;51.392;12.448;2023-08-24T09:50:26;25.00;93.30
1075;DHT22;526;51.392;12.448;2023-08-24T09:52:53;25.00;93.60
1075;DHT22;526;51.392;12.448;2023-08-24T09:55:23;25.10;92.60
1075;DHT22;526;51.392;12.448;2023-08-24T09:57:53;25.10;92.60
1075;DHT22;526;51.392;12.448;2023-08-24T10:00:20;25.10;92.70
1075;DHT22;526;51.392;12.448;2023-08-24T10:02:51;25.10;92.50
1075;DHT22;526;51.392;12.448;2023-08-24T10:05:20;25.20;93.00
1075;DHT22;526;51.392;12.448;2023-08-24T10:07:53;25.20;92.90
1075;DHT22;526;51.392;12.448;2023-08-24T10:10:20;25.30;93.30
1075;DHT22;526;51.392;12.448;2023-08-24T10:12:51;25.40;92.10
1075;DHT22;526;51.392;12.448;2023-08-24T10:15:18;25.40;92.20
1075;DHT22;526;51.392;12.448;2023-08-24T10:17:44;25.50;92.50
1075;DHT22;526;51.392;12.448;2023-08-24T10:20:11;25.50;92.40
1075;DHT22;526;51.392;12.448;2023-08-24T10:22:37;25.50;92.20
1075;DHT22;526;51.392;12.448;2023-08-24T10:25:06;25.50;91.40
1075;DHT22;526;51.392;12.448;2023-08-24T10:27:33;25.50;91.90
1075;DHT22;526;51.392;12.448;2023-08-24T10:29:58;25.50;91.10
1075;DHT22;526;51.392;12.448;2023-08-24T10:32:25;25.50;91.20
1075;DHT22;526;51.392;12.448;2023-08-24T10:34:51;25.50;92.10
1075;DHT22;526;51.392;12.448;2023-08-24T10:37:25;25.50;92.30
1075;DHT22;526;51.392;12.448;2023-08-24T10:39:51;25.50;91.50
1075;DHT22;526;51.392;12.448;2023-08-24T10:42:16;25.50;92.30
1075;DHT22;526;51.392;12.448;2023-08-24T10:44:45;25.50;92.00
1075;DHT22;526;51.392;12.448;2023-08-24T10:47:20;25.40;91.70
1075;DHT22;526;51.392;12.448;2023-08-24T10:49:59;25.40;91.60
1075;DHT22;526;51.392;12.448;2023-08-24T10:52:33;25.40;92.00
1075;DHT22;526;51.392;12.448;2023-08-24T10:55:02;25.40;92.10
1075;DHT22;526;51.392;12.448;2023-08-24T10:57:38;25.40;92.40
1075;DHT22;526;51.392;12.448;2023-08-24T11:08:21;25.30;91.60
1075;DHT22;526;51.392;12.448;2023-08-24T11:13:14;25.30;91.60
1075;DHT22;526;51.392;12.448;2023-08-24T11:15:41;25.30;91.80
1075;DHT22;526;51.392;12.448;2023-08-24T11:20:43;25.30;92.40
1075;DHT22;526;51.392;12.448;2023-08-24T11:23:09;25.30;92.10
1075;DHT22;526;51.392;12.448;2023-08-24T11:25:38;25.40;92.10
1075;DHT22;526;51.392;12.448;2023-08-24T11:28:04;25.30;92.50
1075;DHT22;526;51.392;12.448;2023-08-24T11:30:31;25.40;92.80
1075;DHT22;526;51.392;12.448;2023-08-24T11:32:57;25.40;93.10
1075;DHT22;526;51.392;12.448;2023-08-24T11:35:22;25.50;93.10
1075;DHT22;526;51.392;12.448;2023-08-24T11:37:52;25.50;93.20
1075;DHT22;526;51.392;12.448;2023-08-24T11:40:18;25.50;93.20
1075;DHT22;526;51.392;12.448;2023-08-24T11:42:46;25.60;93.30
1075;DHT22;526;51.392;12.448;2023-08-24T11:45:12;25.60;93.50
1075;DHT22;526;51.392;12.448;2023-08-24T11:47:38;25.60;93.90
1075;DHT22;526;51.392;12.448;2023-08-24T11:50:04;25.70;93.80
1075;DHT22;526;51.392;12.448;2023-08-24T11:52:30;25.70;92.70
1075;DHT22;526;51.392;12.448;2023-08-24T11:55:01;25.80;93.80
1075;DHT22;526;51.392;12.448;2023-08-24T11:57:27;25.80;93.90
1075;DHT22;526;51.392;12.448;2023-08-24T11:59:54;25.80;93.20
1075;DHT22;526;51.392;12.448;2023-08-24T12:02:20;25.80;93.40
1075;DHT22;526;51.392;12.448;2023-08-24T12:04:48;25.90;93.50
1075;DHT22;526;51.392;12.448;2023-08-24T12:07:15;25.90;93.30
1075;DHT22;526;51.392;12.448;2023-08-24T12:09:41;26.00;93.00
1075;DHT22;526;51.392;12.448;2023-08-24T12:12:15;26.10;93.10
1075;DHT22;526;51.392;12.448;2023-08-24T12:14:45;26.20;93.50
1075;DHT22;526;51.392;12.448;2023-08-24T12:17:12;26.30;93.10
1075;DHT22;526;51.392;12.448;2023-08-24T12:19:41;26.30;92.80
1075;DHT22;526;51.392;12.448;2023-08-24T12:22:15;26.40;93.00
1075;DHT22;526;51.392;12.448;2023-08-24T12:24:48;26.40;92.90
1075;DHT22;526;51.392;12.448;2023-08-24T12:27:23;26.50;92.60
1075;DHT22;526;51.392;12.448;2023-08-24T12:29:50;26.70;92.80
1075;DHT22;526;51.392;12.448;2023-08-24T12:32:16;26.80;91.80
1075;DHT22;526;51.392;12.448;2023-08-24T12:34:42;27.10;90.60
1075;DHT22;526;51.392;12.448;2023-08-24T12:37:08;27.30;90.70
1075;DHT22;526;51.392;12.448;2023-08-24T12:39:40;27.60;91.00
1075;DHT22;526;51.392;12.448;2023-08-24T12:42:06;27.90;90.10
1075;DHT22;526;51.392;12.448;2023-08-24T12:44:33;28.10;88.00
1075;DHT22;526;51.392;12.448;2023-08-24T12:46:59;28.40;87.10
1075;DHT22;526;51.392;12.448;2023-08-24T12:49:24;28.50;84.10
1075;DHT22;526;51.392;12.448;2023-08-24T12:51:50;28.70;83.70
1075;DHT22;526;51.392;12.448;2023-08-24T12:54:15;28.80;84.80
1075;DHT22;526;51.392;12.448;2023-08-24T12:56:41;29.00;84.80
1075;DHT22;526;51.392;12.448;2023-08-24T12:59:07;29.10;84.40
1075;DHT22;526;51.392;12.448;2023-08-24T13:01:33;29.10;83.50
1075;DHT22;526;51.392;12.448;2023-08-24T13:03:58;29.20;82.20
1075;DHT22;526;51.392;12.448;2023-08-24T13:06:24;29.30;81.90
1075;DHT22;526;51.392;12.448;2023-08-24T13:08:50;29.40;82.70
1075;DHT22;526;51.392;12.448;2023-08-24T13:11:16;29.50;81.70
1075;DHT22;526;51.392;12.448;2023-08-24T13:13:42;29.60;81.80
1075;DHT22;526;51.392;12.448;2023-08-24T13:16:07;29.80;81.30
1075;DHT22;526;51.392;12.448;2023-08-24T13:18:33;29.90;82.00
1075;DHT22;526;51.392;12.448;2023-08-24T13:20:58;30.00;82.40
1075;DHT22;526;51.392;12.448;2023-08-24T13:23:24;30.20;80.50
1075;DHT22;526;51.392;12.448;2023-08-24T13:25:49;30.30;80.20
1075;DHT22;526;51.392;12.448;2023-08-24T13:28:15;30.30;81.10
1075;DHT22;526;51.392;12.448;2023-08-24T13:30:40;30.40;81.00
1075;DHT22;526;51.392;12.448;2023-08-24T13:33:08;30.50;80.00
1075;DHT22;526;51.392;12.448;2023-08-24T13:35:34;30.40;78.90
1075;DHT22;526;51.392;12.448;2023-08-24T13:38:00;30.40;80.10
1075;DHT22;526;51.392;12.448;2023-08-24T13:40:25;30.30;80.70
1075;DHT22;526;51.392;12.448;2023-08-24T13:42:51;30.40;81.30
1075;DHT22;526;51.392;12.448;2023-08-24T13:45:18;30.50;81.60
1075;DHT22;526;51.392;12.448;2023-08-24T13:47:44;30.60;82.00
1075;DHT22;526;51.392;12.448;2023-08-24T13:50:10;30.70;81.50
1075;DHT22;526;51.392;12.448;2023-08-24T13:52:35;30.70;79.80
1075;DHT22;526;51.392;12.448;2023-08-24T13:55:01;30.80;79.60
1075;DHT22;526;51.392;12.448;2023-08-24T13:57:29;30.90;79.70
1075;DHT22;526;51.392;12.448;2023-08-24T13:59:55;31.00;80.90
1075;DHT22;526;51.392;12.448;2023-08-24T14:02:20;31.10;79.90
1075;DHT22;526;51.392;12.448;2023-08-24T14:04:46;31.10;79.90
1075;DHT22;526;51.392;12.448;2023-08-24T14:07:12;31.10;79.50
1075;DHT22;526;51.392;12.448;2023-08-24T14:09:37;31.10;78.80
1075;DHT22;526;51.392;12.448;2023-08-24T14:12:03;31.00;79.00
1075;DHT22;526;51.392;12.448;2023-08-24T14:14:28;31.00;80.10
1075;DHT22;526;51.392;12.448;2023-08-24T14:16:55;31.00;80.00
1075;DHT22;526;51.392;12.448;2023-08-24T14:19:21;30.90;79.10
1075;DHT22;526;51.392;12.448;2023-08-24T14:21:47;30.80;79.70
1075;DHT22;526;51.392;12.448;2023-08-24T14:24:12;30.80;81.20
1075;DHT22;526;51.392;12.448;2023-08-24T14:26:38;30.70;78.00
1075;DHT22;526;51.392;12.448;2023-08-24T14:29:05;30.70;77.60
1075;DHT22;526;51.392;12.448;2023-08-24T14:31:30;30.70;78.10
1075;DHT22;526;51.392;12.448;2023-08-24T14:33:56;30.80;78.70
1075;DHT22;526;51.392;12.448;2023-08-24T14:36:23;31.00;78.60
1075;DHT22;526;51.392;12.448;2023-08-24T14:38:50;31.20;78.40
1075;DHT22;526;51.392;12.448;2023-08-24T14:41:17;31.30;78.20
1075;DHT22;526;51.392;12.448;2023-08-24T14:43:42;31.50;76.90
1075;DHT22;526;51.392;12.448;2023-08-24T14:46:08;31.60;77.20
1075;DHT22;526;51.392;12.448;2023-08-24T14:48:34;31.80;77.80
1075;DHT22;526;51.392;12.448;2023-08-24T14:51:00;31.90;77.70
1075;DHT22;526;51.392;12.448;2023-08-24T14:53:27;32.00;77.90
1075;DHT22;526;51.392;12.448;2023-08-24T14:55:53;32.10;77.40
1075;DHT22;526;51.392;12.448;2023-08-24T14:58:21;32.20;77.60
1075;DHT22;526;51.392;12.448;2023-08-24T15:00:48;32.20;77.60
1075;DHT22;526;51.392;12.448;2023-08-24T15:03:15;32.20;77.50
1075;DHT22;526;51.392;12.448;2023-08-24T15:05:43;32.20;77.40
1075;DHT22;526;51.392;12.448;2023-08-24T15:08:09;32.00;77.10
1075;DHT22;526;51.392;12.448;2023-08-24T15:10:35;31.80;77.10
1075;DHT22;526;51.392;12.448;2023-08-24T15:13:00;31.60;77.00
1075;DHT22;526;51.392;12.448;2023-08-24T15:15:26;31.50;77.20
1075;DHT22;526;51.392;12.448;2023-08-24T15:17:51;31.50;77.60
1075;DHT22;526;51.392;12.448;2023-08-24T15:20:17;31.50;78.90
1075;DHT22;526;51.392;12.448;2023-08-24T15:22:43;31.50;77.30
1075;DHT22;526;51.392;12.448;2023-08-24T15:25:08;31.40;77.10
1075;DHT22;526;51.392;12.448;2023-08-24T15:27:35;31.20;77.30
1075;DHT22;526;51.392;12.448;2023-08-24T15:30:01;31.00;77.70
1075;DHT22;526;51.392;12.448;2023-08-24T15:32:30;30.80;77.20
1075;DHT22;526;51.392;12.448;2023-08-24T15:34:55;30.60;77.90
1075;DHT22;526;51.392;12.448;2023-08-24T15:37:21;30.50;78.70
1075;DHT22;526;51.392;12.448;2023-08-24T15:39:47;30.30;78.70
1075;DHT22;526;51.392;12.448;2023-08-24T15:42:12;30.20;80.40
1075;DHT22;526;51.392;12.448;2023-08-24T15:44:38;30.10;82.30
1075;DHT22;526;51.392;12.448;2023-08-24T15:47:04;30.10;82.20
1075;DHT22;526;51.392;12.448;2023-08-24T15:49:29;30.00;83.20
1075;DHT22;526;51.392;12.448;2023-08-24T15:51:55;30.00;82.80
1075;DHT22;526;51.392;12.448;2023-08-24T15:54:20;30.00;82.90
1075;DHT22;526;51.392;12.448;2023-08-24T15:56:48;30.00;82.90
1075;DHT22;526;51.392;12.448;2023-08-24T15:59:18;30.20;82.20
1075;DHT22;526;51.392;12.448;2023-08-24T16:01:44;30.30;83.40
1075;DHT22;526;51.392;12.448;2023-08-24T16:04:12;30.50;83.40
1075;DHT22;526;51.392;12.448;2023-08-24T16:06:38;30.60;83.10
1075;DHT22;526;51.392;12.448;2023-08-24T16:09:04;30.80;82.40
1075;DHT22;526;51.392;12.448;2023-08-24T16:11:30;31.00;82.10
1075;DHT22;526;51.392;12.448;2023-08-24T16:13:56;31.10;82.50
1075;DHT22;526;51.392;12.448;2023-08-24T16:16:21;31.20;81.50
1075;DHT22;526;51.392;12.448;2023-08-24T16:18:47;31.30;80.40
1075;DHT22;526;51.392;12.448;2023-08-24T16:21:12;31.30;81.20
1075;DHT22;526;51.392;12.448;2023-08-24T16:23:38;31.20;79.90
1075;DHT22;526;51.392;12.448;2023-08-24T16:26:04;31.20;80.40
1075;DHT22;526;51.392;12.448;2023-08-24T16:28:29;31.20;80.70
1075;DHT22;526;51.392;12.448;2023-08-24T16:30:55;31.10;80.10
1075;DHT22;526;51.392;12.448;2023-08-24T16:33:21;30.90;81.00
1075;DHT22;526;51.392;12.448;2023-08-24T16:35:47;30.70;80.60
1075;DHT22;526;51.392;12.448;2023-08-24T16:38:13;30.50;81.90
1075;DHT22;526;51.392;12.448;2023-08-24T16:40:38;30.20;82.50
1075;DHT22;526;51.392;12.448;2023-08-24T16:43:04;30.00;83.90
1075;DHT22;526;51.392;12.448;2023-08-24T16:45:30;29.80;84.60
1075;DHT22;526;51.392;12.448;2023-08-24T16:47:56;29.60;84.90
1075;DHT22;526;51.392;12.448;2023-08-24T16:50:22;29.40;86.30
1075;DHT22;526;51.392;12.448;2023-08-24T16:52:48;29.10;86.20
1075;DHT22;526;51.392;12.448;2023-08-24T16:55:14;28.90;86.80
1075;DHT22;526;51.392;12.448;2023-08-24T16:57:40;28.70;86.90
1075;DHT22;526;51.392;12.448;2023-08-24T17:00:07;28.50;87.50
1075;DHT22;526;51.392;12.448;2023-08-24T17:02:33;28.30;88.00
1075;DHT22;526;51.392;12.448;2023-08-24T17:05:00;28.20;88.30
1075;DHT22;526;51.392;12.448;2023-08-24T17:07:25;28.10;88.90
1075;DHT22;526;51.392;12.448;2023-08-24T17:09:51;28.00;89.00
1075;DHT22;526;51.392;12.448;2023-08-24T17:12:16;27.80;90.10
1075;DHT22;526;51.392;12.448;2023-08-24T17:14:46;27.80;90.10
1075;DHT22;526;51.392;12.448;2023-08-24T17:17:14;27.70;91.30
1075;DHT22;526;51.392;12.448;2023-08-24T17:19:40;27.60;90.00
1075;DHT22;526;51.392;12.448;2023-08-24T17:22:05;27.50;91.00
1075;DHT22;526;51.392;12.448;2023-08-24T17:24:31;27.40;91.20
1075;DHT22;526;51.392;12.448;2023-08-24T17:26:56;27.40;91.30
1075;DHT22;526;51.392;12.448;2023-08-24T17:29:26;27.30;91.90
1075;DHT22;526;51.392;12.448;2023-08-24T17:31:52;27.20;92.00
1075;DHT22;526;51.392;12.448;2023-08-24T17:34:21;27.10;92.20
1075;DHT22;526;51.392;12.448;2023-08-24T17:36:48;27.00;92.50
1075;DHT22;526;51.392;12.448;2023-08-24T17:39:13;26.90;92.70
1075;DHT22;526;51.392;12.448;2023-08-24T17:41:40;26.80;92.50
1075;DHT22;526;51.392;12.448;2023-08-24T17:44:07;26.80;92.50
1075;DHT22;526;51.392;12.448;2023-08-24T17:46:36;26.70;92.60
1075;DHT22;526;51.392;12.448;2023-08-24T17:49:01;26.60;92.90
1075;DHT22;526;51.392;12.448;2023-08-24T17:51:27;26.50;92.90
1075;DHT22;526;51.392;12.448;2023-08-24T17:53:54;26.40;91.30
1075;DHT22;526;51.392;12.448;2023-08-24T17:56:20;26.40;90.20
1075;DHT22;526;51.392;12.448;2023-08-24T17:58:46;26.30;89.80
1075;DHT22;526;51.392;12.448;2023-08-24T18:01:11;26.40;90.40
1075;DHT22;526;51.392;12.448;2023-08-24T18:03:37;26.40;90.30
1075;DHT22;526;51.392;12.448;2023-08-24T18:06:06;26.40;89.70
1075;DHT22;526;51.392;12.448;2023-08-24T18:08:32;26.40;89.60
1075;DHT22;526;51.392;12.448;2023-08-24T18:11:02;26.50;89.80
1075;DHT22;526;51.392;12.448;2023-08-24T18:13:28;26.50;90.10
1075;DHT22;526;51.392;12.448;2023-08-24T18:15:54;26.40;90.20
1075;DHT22;526;51.392;12.448;2023-08-24T18:18:20;26.40;90.40
1075;DHT22;526;51.392;12.448;2023-08-24T18:20:46;26.40;90.70
1075;DHT22;526;51.392;12.448;2023-08-24T18:23:11;26.40;91.30
1075;DHT22;526;51.392;12.448;2023-08-24T18:25:37;26.30;91.80
1075;DHT22;526;51.392;12.448;2023-08-24T18:28:03;26.30;92.50
1075;DHT22;526;51.392;12.448;2023-08-24T18:30:29;26.20;92.50
1075;DHT22;526;51.392;12.448;2023-08-24T18:32:54;26.10;92.40
1075;DHT22;526;51.392;12.448;2023-08-24T18:35:20;26.00;92.20
1075;DHT22;526;51.392;12.448;2023-08-24T18:37:46;25.90;92.40
1075;DHT22;526;51.392;12.448;2023-08-24T18:40:11;25.90;92.80
1075;DHT22;526;51.392;12.448;2023-08-24T18:42:37;25.80;92.90
1075;DHT22;526;51.392;12.448;2023-08-24T18:45:04;25.80;93.20
1075;DHT22;526;51.392;12.448;2023-08-24T18:47:29;25.70;93.60
1075;DHT22;526;51.392;12.448;2023-08-24T18:49:55;25.60;94.00
1075;DHT22;526;51.392;12.448;2023-08-24T18:52:20;25.50;94.20
1075;DHT22;526;51.392;12.448;2023-08-24T18:54:46;25.40;94.40
1075;DHT22;526;51.392;12.448;2023-08-24T18:57:12;25.40;94.20
1075;DHT22;526;51.392;12.448;2023-08-24T18:59:38;25.30;94.30
1075;DHT22;526;51.392;12.448;2023-08-24T19:02:04;25.30;94.50
1075;DHT22;526;51.392;12.448;2023-08-24T19:04:30;25.30;94.60
1075;DHT22;526;51.392;12.448;2023-08-24T19:06:55;25.20;94.40
1075;DHT22;526;51.392;12.448;2023-08-24T19:09:21;25.20;94.20
1075;DHT22;526;51.392;12.448;2023-08-24T19:11:46;25.20;94.30
1075;DHT22;526;51.392;12.448;2023-08-24T19:14:12;25.20;94.60
1075;DHT22;526;51.392;12.448;2023-08-24T19:16:38;25.20;95.00
1075;DHT22;526;51.392;12.448;2023-08-24T19:19:03;25.10;94.60
1075;DHT22;526;51.392;12.448;2023-08-24T19:21:29;25.10;94.50
1075;DHT22;526;51.392;12.448;2023-08-24T19:23:55;25.10;94.70
1075;DHT22;526;51.392;12.448;2023-08-24T19:26:21;25.10;94.60
1075;DHT22;526;51.392;12.448;2023-08-24T19:28:46;25.00;94.60
1075;DHT22;526;51.392;12.448;2023-08-24T19:31:12;25.00;94.40
1075;DHT22;526;51.392;12.448;2023-08-24T19:33:38;25.00;94.50
1075;DHT22;526;51.392;12.448;2023-08-24T19:36:04;25.00;94.40
1075;DHT22;526;51.392;12.448;2023-08-24T19:38:30;24.90;94.30
1075;DHT22;526;51.392;12.448;2023-08-24T19:40:55;24.90;94.30
1075;DHT22;526;51.392;12.448;2023-08-24T19:43:21;24.90;94.10
1075;DHT22;526;51.392;12.448;2023-08-24T19:45:47;24.80;93.80
1075;DHT22;526;51.392;12.448;2023-08-24T19:48:12;24.80;93.50
1075;DHT22;526;51.392;12.448;2023-08-24T19:50:38;24.80;93.30
1075;DHT22;526;51.392;12.448;2023-08-24T19:53:06;24.80;93.30
1075;DHT22;526;51.392;12.448;2023-08-24T19:55:32;24.80;93.10
1075;DHT22;526;51.392;12.448;2023-08-24T19:57:58;24.80;93.20
1075;DHT22;526;51.392;12.448;2023-08-24T20:00:24;24.80;93.20
1075;DHT22;526;51.392;12.448;2023-08-24T20:02:50;24.80;93.50
1075;DHT22;526;51.392;12.448;2023-08-24T20:05:22;24.70;93.50
1075;DHT22;526;51.392;12.448;2023-08-24T20:07:48;24.70;93.70
1075;DHT22;526;51.392;12.448;2023-08-24T20:10:15;24.70;93.60
1075;DHT22;526;51.392;12.448;2023-08-24T20:12:41;24.70;93.70
1075;DHT22;526;51.392;12.448;2023-08-24T20:15:08;24.70;93.60